sensor_id;sensor_type;location;lat;lon;timestamp;P1;durP1;ratioP1;P2;durP2;ratioP2
4636;SDS011;2331;48.806;9.140;2023-09-08T00:00:13;8.60;;;5.87;;
4636;SDS011;2331;48.806;9.140;2023-09-08T00:02:40;8.40;;;5.40;;
4636;SDS011;2331;48.806;9.140;2023-09-08T00:05:07;10.20;;;5.77;;
4636;SDS011;2331;48.806;9.140;2023-09-08T00:07:33;11.70;;;6.13;;
4636;SDS011;2331;48.806;9.140;2023-09-08T00:10:00;8.40;;;5.87;;
4636;SDS011;2331;48.806;9.140;2023-09-08T00:12:28;9.17;;;5.57;;
4636;SDS011;2331;48.806;9.140;2023-09-08T00:14:55;8.70;;;5.43;;
4636;SDS011;2331;48.806;9.140;2023-09-08T00:17:22;10.00;;;5.70;;
4636;SDS011;2331;48.806;9.140;2023-09-08T00:19:49;7.10;;;5.20;;
4636;SDS011;2331;48.806;9.140;2023-09-08T00:22:15;9.00;;;5.60;;
4636;SDS011;2331;48.806;9.140;2023-09-08T00:24:42;7.20;;;5.33;;
4636;SDS011;2331;48.806;9.140;2023-09-08T00:27:09;9.83;;;6.20;;
4636;SDS011;2331;48.806;9.140;2023-09-08T00:29:37;9.93;;;6.50;;
4636;SDS011;2331;48.806;9.140;2023-09-08T00:32:04;8.53;;;5.73;;
4636;SDS011;2331;48.806;9.140;2023-09-08T00:34:31;9.00;;;6.07;;
4636;SDS011;2331;48.806;9.140;2023-09-08T00:36:58;7.20;;;5.43;;
4636;SDS011;2331;48.806;9.140;2023-09-08T00:39:29;10.63;;;6.20;;
4636;SDS011;2331;48.806;9.140;2023-09-08T00:41:56;9.03;;;5.50;;
4636;SDS011;2331;48.806;9.140;2023-09-08T00:44:23;7.90;;;5.40;;
4636;SDS011;2331;48.806;9.140;2023-09-08T00:46:51;8.17;;;5.37;;
4636;SDS011;2331;48.806;9.140;2023-09-08T00:49:18;10.17;;;6.30;;
4636;SDS011;2331;48.806;9.140;2023-09-08T00:51:45;7.37;;;5.40;;
4636;SDS011;2331;48.806;9.140;2023-09-08T00:54:12;8.17;;;6.00;;
4636;SDS011;2331;48.806;9.140;2023-09-08T00:56:39;13.87;;;6.13;;
4636;SDS011;2331;48.806;9.140;2023-09-08T00:59:06;9.03;;;5.77;;
4636;SDS011;2331;48.806;9.140;2023-09-08T01:01:34;9.93;;;6.20;;
4636;SDS011;2331;48.806;9.140;2023-09-08T01:04:02;10.63;;;5.90;;
4636;SDS011;2331;48.806;9.140;2023-09-08T01:06:29;8.20;;;5.80;;
4636;SDS011;2331;48.806;9.140;2023-09-08T01:08:58;7.57;;;5.57;;
4636;SDS011;2331;48.806;9.140;2023-09-08T01:11:25;9.97;;;6.33;;
4636;SDS011;2331;48.806;9.140;2023-09-08T01:13:52;7.80;;;5.93;;
4636;SDS011;2331;48.806;9.140;2023-09-08T01:16:19;7.47;;;5.37;;
4636;SDS011;2331;48.806;9.140;2023-09-08T01:18:45;9.50;;;6.40;;
4636;SDS011;2331;48.806;9.140;2023-09-08T01:21:22;7.33;;;5.83;;
4636;SDS011;2331;48.806;9.140;2023-09-08T01:24:11;12.83;;;6.87;;
4636;SDS011;2331;48.806;9.140;2023-09-08T01:26:48;7.60;;;5.90;;
4636;SDS011;2331;48.806;9.140;2023-09-08T01:29:15;8.67;;;5.90;;
4636;SDS011;2331;48.806;9.140;2023-09-08T01:31:44;8.83;;;6.30;;
4636;SDS011;2331;48.806;9.140;2023-09-08T01:34:11;9.20;;;5.53;;
4636;SDS011;2331;48.806;9.140;2023-09-08T01:36:38;9.67;;;6.80;;
4636;SDS011;2331;48.806;9.140;2023-09-08T01:39:05;9.00;;;5.93;;
4636;SDS011;2331;48.806;9.140;2023-09-08T01:41:32;8.40;;;5.80;;
4636;SDS011;2331;48.806;9.140;2023-09-08T01:44:00;7.00;;;5.50;;
4636;SDS011;2331;48.806;9.140;2023-09-08T01:46:32;8.00;;;6.20;;
4636;SDS011;2331;48.806;9.140;2023-09-08T01:48:59;8.00;;;6.00;;
4636;SDS011;2331;48.806;9.140;2023-09-08T01:51:26;8.30;;;5.23;;
4636;SDS011;2331;48.806;9.140;2023-09-08T01:53:53;7.20;;;5.70;;
4636;SDS011;2331;48.806;9.140;2023-09-08T01:56:20;9.43;;;6.40;;
4636;SDS011;2331;48.806;9.140;2023-09-08T01:58:48;11.60;;;6.50;;
4636;SDS011;2331;48.806;9.140;2023-09-08T02:01:16;9.87;;;5.80;;
4636;SDS011;2331;48.806;9.140;2023-09-08T02:03:42;7.97;;;5.80;;
4636;SDS011;2331;48.806;9.140;2023-09-08T02:06:09;8.67;;;4.97;;
4636;SDS011;2331;48.806;9.140;2023-09-08T02:08:36;8.10;;;5.57;;
4636;SDS011;2331;48.806;9.140;2023-09-08T02:11:03;8.30;;;5.70;;
4636;SDS011;2331;48.806;9.140;2023-09-08T02:13:29;7.70;;;5.80;;
4636;SDS011;2331;48.806;9.140;2023-09-08T02:15:56;10.40;;;5.33;;
4636;SDS011;2331;48.806;9.140;2023-09-08T02:18:25;6.87;;;5.47;;
4636;SDS011;2331;48.806;9.140;2023-09-08T02:20:53;9.90;;;6.30;;
4636;SDS011;2331;48.806;9.140;2023-09-08T02:23:19;9.70;;;6.33;;
4636;SDS011;2331;48.806;9.140;2023-09-08T02:25:46;8.63;;;6.17;;
4636;SDS011;2331;48.806;9.140;2023-09-08T02:28:13;9.98;;;6.20;;
4636;SDS011;2331;48.806;9.140;2023-09-08T02:30:40;8.27;;;6.07;;
4636;SDS011;2331;48.806;9.140;2023-09-08T02:33:07;7.53;;;5.38;;
4636;SDS011;2331;48.806;9.140;2023-09-08T02:35:36;9.63;;;5.97;;
4636;SDS011;2331;48.806;9.140;2023-09-08T02:38:04;7.63;;;5.60;;
4636;SDS011;2331;48.806;9.140;2023-09-08T02:40:31;8.80;;;5.77;;
4636;SDS011;2331;48.806;9.140;2023-09-08T02:42:59;8.57;;;5.68;;
4636;SDS011;2331;48.806;9.140;2023-09-08T02:45:26;6.50;;;5.03;;
4636;SDS011;2331;48.806;9.140;2023-09-08T02:47:52;7.57;;;5.60;;
4636;SDS011;2331;48.806;9.140;2023-09-08T02:50:19;9.55;;;6.05;;
4636;SDS011;2331;48.806;9.140;2023-09-08T02:52:47;6.27;;;4.60;;
4636;SDS011;2331;48.806;9.140;2023-09-08T02:55:15;9.15;;;5.95;;
4636;SDS011;2331;48.806;9.140;2023-09-08T02:57:42;9.60;;;6.07;;
4636;SDS011;2331;48.806;9.140;2023-09-08T03:00:09;7.15;;;5.20;;
4636;SDS011;2331;48.806;9.140;2023-09-08T03:02:36;8.30;;;5.32;;
4636;SDS011;2331;48.806;9.140;2023-09-08T03:05:03;6.30;;;4.60;;
4636;SDS011;2331;48.806;9.140;2023-09-08T03:07:30;14.60;;;6.10;;
4636;SDS011;2331;48.806;9.140;2023-09-08T03:10:00;8.20;;;5.30;;
4636;SDS011;2331;48.806;9.140;2023-09-08T03:12:26;7.83;;;5.43;;
4636;SDS011;2331;48.806;9.140;2023-09-08T03:14:54;8.63;;;5.87;;
4636;SDS011;2331;48.806;9.140;2023-09-08T03:17:21;10.15;;;5.50;;
4636;SDS011;2331;48.806;9.140;2023-09-08T03:19:47;9.68;;;6.13;;
4636;SDS011;2331;48.806;9.140;2023-09-08T03:22:14;12.88;;;5.63;;
4636;SDS011;2331;48.806;9.140;2023-09-08T03:24:41;6.88;;;5.00;;
4636;SDS011;2331;48.806;9.140;2023-09-08T03:27:09;7.28;;;5.35;;
4636;SDS011;2331;48.806;9.140;2023-09-08T03:29:36;7.85;;;5.80;;
4636;SDS011;2331;48.806;9.140;2023-09-08T03:32:03;8.98;;;5.40;;
4636;SDS011;2331;48.806;9.140;2023-09-08T03:34:30;8.02;;;5.90;;
4636;SDS011;2331;48.806;9.140;2023-09-08T03:36:57;6.72;;;5.20;;
4636;SDS011;2331;48.806;9.140;2023-09-08T03:39:24;10.05;;;5.78;;
4636;SDS011;2331;48.806;9.140;2023-09-08T03:41:51;8.40;;;5.47;;
4636;SDS011;2331;48.806;9.140;2023-09-08T03:44:19;9.00;;;5.47;;
4636;SDS011;2331;48.806;9.140;2023-09-08T03:46:46;6.93;;;4.60;;
4636;SDS011;2331;48.806;9.140;2023-09-08T03:49:13;6.30;;;5.10;;
4636;SDS011;2331;48.806;9.140;2023-09-08T03:51:39;6.80;;;5.15;;
4636;SDS011;2331;48.806;9.140;2023-09-08T03:54:06;8.05;;;5.35;;
4636;SDS011;2331;48.806;9.140;2023-09-08T03:56:33;10.27;;;5.45;;
4636;SDS011;2331;48.806;9.140;2023-09-08T03:59:00;7.85;;;5.78;;
4636;SDS011;2331;48.806;9.140;2023-09-08T04:01:28;12.05;;;5.50;;
4636;SDS011;2331;48.806;9.140;2023-09-08T04:03:55;8.82;;;6.35;;
4636;SDS011;2331;48.806;9.140;2023-09-08T04:06:22;8.88;;;5.32;;
4636;SDS011;2331;48.806;9.140;2023-09-08T04:08:49;7.38;;;5.07;;
4636;SDS011;2331;48.806;9.140;2023-09-08T04:11:16;7.65;;;5.53;;
4636;SDS011;2331;48.806;9.140;2023-09-08T04:13:42;9.25;;;5.25;;
4636;SDS011;2331;48.806;9.140;2023-09-08T04:16:09;8.30;;;5.43;;
4636;SDS011;2331;48.806;9.140;2023-09-08T04:18:37;7.38;;;5.50;;
4636;SDS011;2331;48.806;9.140;2023-09-08T04:21:05;7.38;;;5.47;;
4636;SDS011;2331;48.806;9.140;2023-09-08T04:23:33;7.90;;;4.80;;
4636;SDS011;2331;48.806;9.140;2023-09-08T04:26:00;9.43;;;6.35;;
4636;SDS011;2331;48.806;9.140;2023-09-08T04:28:27;8.10;;;5.10;;
4636;SDS011;2331;48.806;9.140;2023-09-08T04:30:54;6.75;;;5.15;;
4636;SDS011;2331;48.806;9.140;2023-09-08T04:33:22;10.63;;;6.22;;
4636;SDS011;2331;48.806;9.140;2023-09-08T04:35:51;8.65;;;6.30;;
4636;SDS011;2331;48.806;9.140;2023-09-08T04:38:17;7.45;;;5.40;;
4636;SDS011;2331;48.806;9.140;2023-09-08T04:40:44;7.75;;;5.32;;
4636;SDS011;2331;48.806;9.140;2023-09-08T04:43:12;10.75;;;6.25;;
4636;SDS011;2331;48.806;9.140;2023-09-08T04:45:39;9.88;;;5.80;;
4636;SDS011;2331;48.806;9.140;2023-09-08T04:48:06;9.18;;;6.30;;
4636;SDS011;2331;48.806;9.140;2023-09-08T04:50:33;9.35;;;6.13;;
4636;SDS011;2331;48.806;9.140;2023-09-08T04:53:01;8.45;;;5.75;;
4636;SDS011;2331;48.806;9.140;2023-09-08T04:55:28;8.00;;;5.65;;
4636;SDS011;2331;48.806;9.140;2023-09-08T04:57:55;6.97;;;5.25;;
4636;SDS011;2331;48.806;9.140;2023-09-08T05:00:22;8.25;;;5.90;;
4636;SDS011;2331;48.806;9.140;2023-09-08T05:02:49;9.65;;;6.20;;
4636;SDS011;2331;48.806;9.140;2023-09-08T05:05:16;8.85;;;5.25;;
4636;SDS011;2331;48.806;9.140;2023-09-08T05:07:42;16.02;;;10.43;;
4636;SDS011;2331;48.806;9.140;2023-09-08T05:10:11;10.40;;;6.93;;
4636;SDS011;2331;48.806;9.140;2023-09-08T05:12:38;9.73;;;6.07;;
4636;SDS011;2331;48.806;9.140;2023-09-08T05:15:05;12.38;;;6.80;;
4636;SDS011;2331;48.806;9.140;2023-09-08T05:17:39;9.48;;;6.40;;
4636;SDS011;2331;48.806;9.140;2023-09-08T05:20:06;16.40;;;6.90;;
4636;SDS011;2331;48.806;9.140;2023-09-08T05:22:34;13.88;;;7.15;;
4636;SDS011;2331;48.806;9.140;2023-09-08T05:25:01;14.38;;;7.82;;
4636;SDS011;2331;48.806;9.140;2023-09-08T05:27:29;9.90;;;6.40;;
4636;SDS011;2331;48.806;9.140;2023-09-08T05:29:56;10.73;;;6.68;;
4636;SDS011;2331;48.806;9.140;2023-09-08T05:32:23;9.65;;;6.30;;
4636;SDS011;2331;48.806;9.140;2023-09-08T05:34:50;9.73;;;6.53;;
4636;SDS011;2331;48.806;9.140;2023-09-08T05:37:17;10.38;;;6.57;;
4636;SDS011;2331;48.806;9.140;2023-09-08T05:39:44;11.30;;;6.50;;
4636;SDS011;2331;48.806;9.140;2023-09-08T05:42:11;11.20;;;6.45;;
4636;SDS011;2331;48.806;9.140;2023-09-08T05:44:39;13.70;;;7.10;;
4636;SDS011;2331;48.806;9.140;2023-09-08T05:47:06;11.95;;;6.30;;
4636;SDS011;2331;48.806;9.140;2023-09-08T05:49:33;10.32;;;6.68;;
4636;SDS011;2331;48.806;9.140;2023-09-08T05:52:00;9.65;;;6.78;;
4636;SDS011;2331;48.806;9.140;2023-09-08T05:54:26;11.80;;;7.30;;
4636;SDS011;2331;48.806;9.140;2023-09-08T05:56:55;10.07;;;6.00;;
4636;SDS011;2331;48.806;9.140;2023-09-08T05:59:22;13.40;;;7.53;;
4636;SDS011;2331;48.806;9.140;2023-09-08T06:01:51;10.63;;;6.93;;
4636;SDS011;2331;48.806;9.140;2023-09-08T06:04:17;12.30;;;7.57;;
4636;SDS011;2331;48.806;9.140;2023-09-08T06:06:44;10.60;;;7.18;;
4636;SDS011;2331;48.806;9.140;2023-09-08T06:09:11;15.20;;;7.28;;
4636;SDS011;2331;48.806;9.140;2023-09-08T06:11:40;15.07;;;8.73;;
4636;SDS011;2331;48.806;9.140;2023-09-08T06:14:06;11.15;;;8.30;;
4636;SDS011;2331;48.806;9.140;2023-09-08T06:16:34;13.05;;;8.18;;
4636;SDS011;2331;48.806;9.140;2023-09-08T06:19:03;13.30;;;9.10;;
4636;SDS011;2331;48.806;9.140;2023-09-08T06:21:30;15.23;;;8.63;;
4636;SDS011;2331;48.806;9.140;2023-09-08T06:23:57;11.30;;;7.82;;
4636;SDS011;2331;48.806;9.140;2023-09-08T06:26:24;12.85;;;7.50;;
4636;SDS011;2331;48.806;9.140;2023-09-08T06:28:51;15.27;;;7.35;;
4636;SDS011;2331;48.806;9.140;2023-09-08T06:31:17;12.98;;;7.35;;
4636;SDS011;2331;48.806;9.140;2023-09-08T06:33:44;14.18;;;7.60;;
4636;SDS011;2331;48.806;9.140;2023-09-08T06:36:12;11.77;;;8.32;;
4636;SDS011;2331;48.806;9.140;2023-09-08T06:38:39;11.60;;;7.20;;
4636;SDS011;2331;48.806;9.140;2023-09-08T06:41:09;11.23;;;7.40;;
4636;SDS011;2331;48.806;9.140;2023-09-08T06:43:36;14.70;;;9.02;;
4636;SDS011;2331;48.806;9.140;2023-09-08T06:46:03;13.45;;;8.10;;
4636;SDS011;2331;48.806;9.140;2023-09-08T06:48:30;12.27;;;7.40;;
4636;SDS011;2331;48.806;9.140;2023-09-08T06:50:57;16.85;;;9.57;;
4636;SDS011;2331;48.806;9.140;2023-09-08T06:53:25;16.13;;;9.73;;
4636;SDS011;2331;48.806;9.140;2023-09-08T06:55:52;11.60;;;8.00;;
4636;SDS011;2331;48.806;9.140;2023-09-08T06:58:19;14.77;;;10.07;;
4636;SDS011;2331;48.806;9.140;2023-09-08T07:00:45;14.95;;;9.60;;
4636;SDS011;2331;48.806;9.140;2023-09-08T07:03:14;18.63;;;8.18;;
4636;SDS011;2331;48.806;9.140;2023-09-08T07:05:41;11.38;;;8.43;;
4636;SDS011;2331;48.806;9.140;2023-09-08T07:08:08;14.68;;;8.50;;
4636;SDS011;2331;48.806;9.140;2023-09-08T07:10:36;11.50;;;7.57;;
4636;SDS011;2331;48.806;9.140;2023-09-08T07:13:03;13.38;;;8.02;;
4636;SDS011;2331;48.806;9.140;2023-09-08T07:15:30;10.20;;;7.83;;
4636;SDS011;2331;48.806;9.140;2023-09-08T07:17:56;14.83;;;8.30;;
4636;SDS011;2331;48.806;9.140;2023-09-08T07:20:23;11.73;;;8.25;;
4636;SDS011;2331;48.806;9.140;2023-09-08T07:22:50;14.65;;;8.20;;
4636;SDS011;2331;48.806;9.140;2023-09-08T07:25:17;11.07;;;8.40;;
4636;SDS011;2331;48.806;9.140;2023-09-08T07:27:46;10.70;;;7.27;;
4636;SDS011;2331;48.806;9.140;2023-09-08T07:30:13;15.13;;;8.90;;
4636;SDS011;2331;48.806;9.140;2023-09-08T07:32:40;12.10;;;8.27;;
4636;SDS011;2331;48.806;9.140;2023-09-08T07:35:07;12.07;;;8.30;;
4636;SDS011;2331;48.806;9.140;2023-09-08T07:37:39;11.47;;;8.47;;
4636;SDS011;2331;48.806;9.140;2023-09-08T07:40:06;10.47;;;8.00;;
4636;SDS011;2331;48.806;9.140;2023-09-08T07:42:36;14.03;;;8.83;;
4636;SDS011;2331;48.806;9.140;2023-09-08T07:45:04;16.73;;;8.73;;
4636;SDS011;2331;48.806;9.140;2023-09-08T07:47:34;14.90;;;9.47;;
4636;SDS011;2331;48.806;9.140;2023-09-08T07:50:19;14.47;;;9.20;;
4636;SDS011;2331;48.806;9.140;2023-09-08T07:52:47;13.20;;;9.20;;
4636;SDS011;2331;48.806;9.140;2023-09-08T07:55:15;14.73;;;9.57;;
4636;SDS011;2331;48.806;9.140;2023-09-08T07:57:42;15.03;;;9.20;;
4636;SDS011;2331;48.806;9.140;2023-09-08T08:00:13;13.17;;;9.33;;
4636;SDS011;2331;48.806;9.140;2023-09-08T08:02:41;14.80;;;8.93;;
4636;SDS011;2331;48.806;9.140;2023-09-08T08:05:09;16.73;;;10.23;;
4636;SDS011;2331;48.806;9.140;2023-09-08T08:07:37;17.50;;;9.43;;
4636;SDS011;2331;48.806;9.140;2023-09-08T08:10:05;16.37;;;10.27;;
4636;SDS011;2331;48.806;9.140;2023-09-08T08:12:32;17.07;;;9.70;;
4636;SDS011;2331;48.806;9.140;2023-09-08T08:14:59;14.50;;;9.43;;
4636;SDS011;2331;48.806;9.140;2023-09-08T08:17:27;14.40;;;9.93;;
4636;SDS011;2331;48.806;9.140;2023-09-08T08:19:55;15.37;;;10.47;;
4636;SDS011;2331;48.806;9.140;2023-09-08T08:22:23;13.20;;;9.83;;
4636;SDS011;2331;48.806;9.140;2023-09-08T08:24:50;12.13;;;8.93;;
4636;SDS011;2331;48.806;9.140;2023-09-08T08:27:17;13.80;;;9.73;;
4636;SDS011;2331;48.806;9.140;2023-09-08T08:29:44;11.20;;;8.37;;
4636;SDS011;2331;48.806;9.140;2023-09-08T08:32:10;14.03;;;9.60;;
4636;SDS011;2331;48.806;9.140;2023-09-08T08:34:38;11.87;;;8.37;;
4636;SDS011;2331;48.806;9.140;2023-09-08T08:37:05;13.03;;;9.40;;
4636;SDS011;2331;48.806;9.140;2023-09-08T08:39:32;14.20;;;9.17;;
4636;SDS011;2331;48.806;9.140;2023-09-08T08:42:05;12.77;;;8.17;;
4636;SDS011;2331;48.806;9.140;2023-09-08T08:44:33;15.80;;;8.80;;
4636;SDS011;2331;48.806;9.140;2023-09-08T08:47:00;13.00;;;8.60;;
4636;SDS011;2331;48.806;9.140;2023-09-08T08:49:28;11.10;;;7.90;;
4636;SDS011;2331;48.806;9.140;2023-09-08T08:51:58;11.70;;;8.10;;
4636;SDS011;2331;48.806;9.140;2023-09-08T08:54:28;11.03;;;8.37;;
4636;SDS011;2331;48.806;9.140;2023-09-08T08:56:56;12.43;;;8.13;;
4636;SDS011;2331;48.806;9.140;2023-09-08T08:59:23;10.97;;;8.07;;
4636;SDS011;2331;48.806;9.140;2023-09-08T09:01:50;15.73;;;8.47;;
4636;SDS011;2331;48.806;9.140;2023-09-08T09:04:18;12.17;;;7.70;;
4636;SDS011;2331;48.806;9.140;2023-09-08T09:06:44;13.40;;;8.23;;
4636;SDS011;2331;48.806;9.140;2023-09-08T09:09:13;12.50;;;8.23;;
4636;SDS011;2331;48.806;9.140;2023-09-08T09:11:40;11.10;;;8.00;;
4636;SDS011;2331;48.806;9.140;2023-09-08T09:14:08;14.07;;;8.80;;
4636;SDS011;2331;48.806;9.140;2023-09-08T09:16:38;11.07;;;7.90;;
4636;SDS011;2331;48.806;9.140;2023-09-08T09:19:06;11.00;;;8.37;;
4636;SDS011;2331;48.806;9.140;2023-09-08T09:21:41;11.00;;;7.70;;
4636;SDS011;2331;48.806;9.140;2023-09-08T09:24:14;12.30;;;8.47;;
4636;SDS011;2331;48.806;9.140;2023-09-08T09:26:42;20.93;;;8.50;;
4636;SDS011;2331;48.806;9.140;2023-09-08T09:29:11;14.37;;;8.23;;
4636;SDS011;2331;48.806;9.140;2023-09-08T09:31:43;14.03;;;9.47;;
4636;SDS011;2331;48.806;9.140;2023-09-08T09:34:17;13.37;;;7.90;;
4636;SDS011;2331;48.806;9.140;2023-09-08T09:36:45;10.97;;;8.00;;
4636;SDS011;2331;48.806;9.140;2023-09-08T09:39:17;12.33;;;7.70;;
4636;SDS011;2331;48.806;9.140;2023-09-08T09:41:44;11.77;;;7.90;;
4636;SDS011;2331;48.806;9.140;2023-09-08T09:44:12;10.93;;;7.87;;
4636;SDS011;2331;48.806;9.140;2023-09-08T09:46:39;11.90;;;7.33;;
4636;SDS011;2331;48.806;9.140;2023-09-08T09:49:10;11.97;;;8.10;;
4636;SDS011;2331;48.806;9.140;2023-09-08T09:51:39;12.20;;;8.00;;
4636;SDS011;2331;48.806;9.140;2023-09-08T09:54:08;14.13;;;8.63;;
4636;SDS011;2331;48.806;9.140;2023-09-08T09:56:38;14.27;;;7.87;;
4636;SDS011;2331;48.806;9.140;2023-09-08T09:59:07;10.60;;;7.67;;
4636;SDS011;2331;48.806;9.140;2023-09-08T10:01:34;12.70;;;7.70;;
4636;SDS011;2331;48.806;9.140;2023-09-08T10:04:02;11.60;;;7.60;;
4636;SDS011;2331;48.806;9.140;2023-09-08T10:06:30;11.97;;;7.43;;
4636;SDS011;2331;48.806;9.140;2023-09-08T10:08:58;13.97;;;7.83;;
4636;SDS011;2331;48.806;9.140;2023-09-08T10:11:28;13.43;;;7.20;;
4636;SDS011;2331;48.806;9.140;2023-09-08T10:13:57;13.90;;;8.50;;
4636;SDS011;2331;48.806;9.140;2023-09-08T10:16:26;15.33;;;7.80;;
4636;SDS011;2331;48.806;9.140;2023-09-08T10:18:54;15.70;;;7.80;;
4636;SDS011;2331;48.806;9.140;2023-09-08T10:21:23;11.67;;;7.97;;
4636;SDS011;2331;48.806;9.140;2023-09-08T10:23:54;11.03;;;7.70;;
4636;SDS011;2331;48.806;9.140;2023-09-08T10:26:28;11.07;;;8.00;;
4636;SDS011;2331;48.806;9.140;2023-09-08T10:29:01;9.00;;;6.70;;
4636;SDS011;2331;48.806;9.140;2023-09-08T10:31:28;12.00;;;7.87;;
4636;SDS011;2331;48.806;9.140;2023-09-08T10:33:56;19.70;;;7.70;;
4636;SDS011;2331;48.806;9.140;2023-09-08T10:36:23;11.27;;;7.57;;
4636;SDS011;2331;48.806;9.140;2023-09-08T10:38:50;8.70;;;6.90;;
4636;SDS011;2331;48.806;9.140;2023-09-08T10:41:26;18.50;;;7.40;;
4636;SDS011;2331;48.806;9.140;2023-09-08T10:43:58;12.37;;;7.40;;
4636;SDS011;2331;48.806;9.140;2023-09-08T10:46:31;12.63;;;7.43;;
4636;SDS011;2331;48.806;9.140;2023-09-08T10:49:03;13.57;;;6.77;;
4636;SDS011;2331;48.806;9.140;2023-09-08T10:51:32;13.77;;;6.80;;
4636;SDS011;2331;48.806;9.140;2023-09-08T10:53:59;12.67;;;7.70;;
4636;SDS011;2331;48.806;9.140;2023-09-08T10:56:27;12.60;;;7.30;;
4636;SDS011;2331;48.806;9.140;2023-09-08T10:58:58;13.27;;;7.20;;
4636;SDS011;2331;48.806;9.140;2023-09-08T11:01:27;10.70;;;7.27;;
4636;SDS011;2331;48.806;9.140;2023-09-08T11:03:55;13.03;;;7.17;;
4636;SDS011;2331;48.806;9.140;2023-09-08T11:06:23;11.50;;;7.83;;
4636;SDS011;2331;48.806;9.140;2023-09-08T11:08:55;11.10;;;7.47;;
4636;SDS011;2331;48.806;9.140;2023-09-08T11:11:23;9.23;;;7.00;;
4636;SDS011;2331;48.806;9.140;2023-09-08T11:13:50;10.33;;;6.60;;
4636;SDS011;2331;48.806;9.140;2023-09-08T11:16:17;10.37;;;6.20;;
4636;SDS011;2331;48.806;9.140;2023-09-08T11:18:50;10.03;;;7.37;;
4636;SDS011;2331;48.806;9.140;2023-09-08T11:21:18;11.00;;;6.87;;
4636;SDS011;2331;48.806;9.140;2023-09-08T11:23:45;9.93;;;7.67;;
4636;SDS011;2331;48.806;9.140;2023-09-08T11:26:12;8.40;;;6.40;;
4636;SDS011;2331;48.806;9.140;2023-09-08T11:28:40;16.03;;;7.33;;
4636;SDS011;2331;48.806;9.140;2023-09-08T11:31:07;8.67;;;6.10;;
4636;SDS011;2331;48.806;9.140;2023-09-08T11:33:35;9.90;;;6.73;;
4636;SDS011;2331;48.806;9.140;2023-09-08T11:36:10;8.80;;;6.37;;
4636;SDS011;2331;48.806;9.140;2023-09-08T11:38:39;9.57;;;6.27;;
4636;SDS011;2331;48.806;9.140;2023-09-08T11:41:06;10.30;;;7.47;;
4636;SDS011;2331;48.806;9.140;2023-09-08T11:43:33;10.57;;;6.73;;
4636;SDS011;2331;48.806;9.140;2023-09-08T11:46:00;10.00;;;7.40;;
4636;SDS011;2331;48.806;9.140;2023-09-08T11:48:27;11.53;;;6.93;;
4636;SDS011;2331;48.806;9.140;2023-09-08T11:50:54;9.30;;;6.70;;
4636;SDS011;2331;48.806;9.140;2023-09-08T11:53:22;10.60;;;6.80;;
4636;SDS011;2331;48.806;9.140;2023-09-08T11:55:50;13.03;;;6.67;;
4636;SDS011;2331;48.806;9.140;2023-09-08T11:58:17;9.90;;;7.20;;
4636;SDS011;2331;48.806;9.140;2023-09-08T12:00:45;10.20;;;6.87;;
4636;SDS011;2331;48.806;9.140;2023-09-08T12:03:14;9.00;;;6.60;;
4636;SDS011;2331;48.806;9.140;2023-09-08T12:05:41;10.83;;;6.27;;
4636;SDS011;2331;48.806;9.140;2023-09-08T12:08:10;12.40;;;6.97;;
4636;SDS011;2331;48.806;9.140;2023-09-08T12:10:41;10.00;;;6.70;;
4636;SDS011;2331;48.806;9.140;2023-09-08T12:13:08;9.33;;;6.33;;
4636;SDS011;2331;48.806;9.140;2023-09-08T12:15:36;12.30;;;6.30;;
4636;SDS011;2331;48.806;9.140;2023-09-08T12:18:04;8.90;;;6.53;;
4636;SDS011;2331;48.806;9.140;2023-09-08T12:20:32;10.77;;;6.13;;
4636;SDS011;2331;48.806;9.140;2023-09-08T12:23:02;12.53;;;6.30;;
4636;SDS011;2331;48.806;9.140;2023-09-08T12:25:29;9.70;;;6.43;;
4636;SDS011;2331;48.806;9.140;2023-09-08T12:27:58;8.07;;;5.90;;
4636;SDS011;2331;48.806;9.140;2023-09-08T12:30:26;11.10;;;7.07;;
4636;SDS011;2331;48.806;9.140;2023-09-08T12:32:58;10.40;;;6.20;;
4636;SDS011;2331;48.806;9.140;2023-09-08T12:35:26;8.87;;;6.30;;
4636;SDS011;2331;48.806;9.140;2023-09-08T12:37:56;8.23;;;6.17;;
4636;SDS011;2331;48.806;9.140;2023-09-08T12:40:25;8.57;;;6.30;;
4636;SDS011;2331;48.806;9.140;2023-09-08T12:42:52;8.30;;;6.00;;
4636;SDS011;2331;48.806;9.140;2023-09-08T12:45:21;7.50;;;5.87;;
4636;SDS011;2331;48.806;9.140;2023-09-08T12:47:48;11.43;;;7.07;;
4636;SDS011;2331;48.806;9.140;2023-09-08T12:50:15;10.00;;;6.40;;
4636;SDS011;2331;48.806;9.140;2023-09-08T12:52:42;12.10;;;6.93;;
4636;SDS011;2331;48.806;9.140;2023-09-08T12:55:09;10.43;;;6.53;;
4636;SDS011;2331;48.806;9.140;2023-09-08T12:57:36;9.30;;;6.57;;
4636;SDS011;2331;48.806;9.140;2023-09-08T13:00:03;9.73;;;7.10;;
4636;SDS011;2331;48.806;9.140;2023-09-08T13:02:33;8.07;;;6.10;;
4636;SDS011;2331;48.806;9.140;2023-09-08T13:05:01;8.70;;;6.67;;
4636;SDS011;2331;48.806;9.140;2023-09-08T13:07:27;8.43;;;6.83;;
4636;SDS011;2331;48.806;9.140;2023-09-08T13:09:54;11.80;;;6.47;;
4636;SDS011;2331;48.806;9.140;2023-09-08T13:12:21;9.70;;;6.33;;
4636;SDS011;2331;48.806;9.140;2023-09-08T13:14:48;11.00;;;6.83;;
4636;SDS011;2331;48.806;9.140;2023-09-08T13:17:15;11.13;;;6.63;;
4636;SDS011;2331;48.806;9.140;2023-09-08T13:19:43;12.03;;;6.60;;
4636;SDS011;2331;48.806;9.140;2023-09-08T13:22:10;10.33;;;6.03;;
4636;SDS011;2331;48.806;9.140;2023-09-08T13:24:37;8.33;;;5.67;;
4636;SDS011;2331;48.806;9.140;2023-09-08T13:27:04;12.63;;;6.87;;
4636;SDS011;2331;48.806;9.140;2023-09-08T13:29:31;9.00;;;5.47;;
4636;SDS011;2331;48.806;9.140;2023-09-08T13:31:58;11.20;;;6.93;;
4636;SDS011;2331;48.806;9.140;2023-09-08T13:34:25;13.00;;;6.30;;
4636;SDS011;2331;48.806;9.140;2023-09-08T13:36:53;11.50;;;6.80;;
4636;SDS011;2331;48.806;9.140;2023-09-08T13:39:19;10.67;;;6.57;;
4636;SDS011;2331;48.806;9.140;2023-09-08T13:41:47;7.57;;;5.73;;
4636;SDS011;2331;48.806;9.140;2023-09-08T13:44:17;11.23;;;6.03;;
4636;SDS011;2331;48.806;9.140;2023-09-08T13:46:45;7.93;;;6.10;;
4636;SDS011;2331;48.806;9.140;2023-09-08T13:49:15;10.23;;;6.23;;
4636;SDS011;2331;48.806;9.140;2023-09-08T13:51:42;10.40;;;6.10;;
4636;SDS011;2331;48.806;9.140;2023-09-08T13:54:11;7.53;;;5.67;;
4636;SDS011;2331;48.806;9.140;2023-09-08T13:56:38;9.27;;;5.80;;
4636;SDS011;2331;48.806;9.140;2023-09-08T13:59:06;7.63;;;5.00;;
4636;SDS011;2331;48.806;9.140;2023-09-08T14:01:34;12.13;;;6.33;;
4636;SDS011;2331;48.806;9.140;2023-09-08T14:04:02;9.00;;;5.90;;
4636;SDS011;2331;48.806;9.140;2023-09-08T14:06:31;9.60;;;6.07;;
4636;SDS011;2331;48.806;9.140;2023-09-08T14:08:58;10.60;;;6.70;;
4636;SDS011;2331;48.806;9.140;2023-09-08T14:11:26;11.10;;;5.90;;
4636;SDS011;2331;48.806;9.140;2023-09-08T14:13:53;8.00;;;6.17;;
4636;SDS011;2331;48.806;9.140;2023-09-08T14:16:20;7.80;;;5.10;;
4636;SDS011;2331;48.806;9.140;2023-09-08T14:18:47;7.63;;;5.40;;
4636;SDS011;2331;48.806;9.140;2023-09-08T14:21:14;9.00;;;5.80;;
4636;SDS011;2331;48.806;9.140;2023-09-08T14:23:41;8.00;;;5.40;;
4636;SDS011;2331;48.806;9.140;2023-09-08T14:26:07;8.77;;;5.50;;
4636;SDS011;2331;48.806;9.140;2023-09-08T14:28:35;8.07;;;5.70;;
4636;SDS011;2331;48.806;9.140;2023-09-08T14:31:02;8.43;;;5.50;;
4636;SDS011;2331;48.806;9.140;2023-09-08T14:33:29;8.10;;;5.77;;
4636;SDS011;2331;48.806;9.140;2023-09-08T14:35:56;8.00;;;5.80;;
4636;SDS011;2331;48.806;9.140;2023-09-08T14:38:23;8.60;;;6.43;;
4636;SDS011;2331;48.806;9.140;2023-09-08T14:40:54;11.97;;;6.63;;
4636;SDS011;2331;48.806;9.140;2023-09-08T14:43:21;8.40;;;5.77;;
4636;SDS011;2331;48.806;9.140;2023-09-08T14:45:50;9.60;;;5.87;;
4636;SDS011;2331;48.806;9.140;2023-09-08T14:48:17;7.90;;;5.53;;
4636;SDS011;2331;48.806;9.140;2023-09-08T14:50:44;9.40;;;5.90;;
4636;SDS011;2331;48.806;9.140;2023-09-08T14:53:11;8.17;;;5.80;;
4636;SDS011;2331;48.806;9.140;2023-09-08T14:55:38;10.07;;;6.30;;
4636;SDS011;2331;48.806;9.140;2023-09-08T14:58:05;9.20;;;5.23;;
4636;SDS011;2331;48.806;9.140;2023-09-08T15:00:32;9.33;;;5.43;;
4636;SDS011;2331;48.806;9.140;2023-09-08T15:03:00;7.20;;;5.20;;
4636;SDS011;2331;48.806;9.140;2023-09-08T15:05:29;8.83;;;5.87;;
4636;SDS011;2331;48.806;9.140;2023-09-08T15:07:56;8.47;;;5.70;;
4636;SDS011;2331;48.806;9.140;2023-09-08T15:10:23;7.30;;;5.20;;